sensor_id;sensor_type;location;lat;lon;timestamp;P1;durP1;ratioP1;P2;durP2;ratioP2
35128;SDS011;21301;43.626;10.580;2023-07-08T00:00:52;8.15;;;4.40;;
35128;SDS011;21301;43.626;10.580;2023-07-08T00:03:20;12.60;;;5.10;;
35128;SDS011;21301;43.626;10.580;2023-07-08T00:08:19;14.65;;;5.35;;
35128;SDS011;21301;43.626;10.580;2023-07-08T00:10:45;11.00;;;4.50;;
35128;SDS011;21301;43.626;10.580;2023-07-08T00:13:11;12.32;;;4.95;;
35128;SDS011;21301;43.626;10.580;2023-07-08T00:15:38;7.20;;;3.90;;
35128;SDS011;21301;43.626;10.580;2023-07-08T00:18:13;9.98;;;4.60;;
35128;SDS011;21301;43.626;10.580;2023-07-08T00:20:43;7.32;;;4.32;;
35128;SDS011;21301;43.626;10.580;2023-07-08T00:23:11;8.13;;;4.88;;
35128;SDS011;21301;43.626;10.580;2023-07-08T00:25:41;8.20;;;4.47;;
35128;SDS011;21301;43.626;10.580;2023-07-08T00:28:12;7.10;;;4.50;;
35128;SDS011;21301;43.626;10.580;2023-07-08T00:30:43;7.45;;;4.18;;
35128;SDS011;21301;43.626;10.580;2023-07-08T00:33:13;8.48;;;4.75;;
35128;SDS011;21301;43.626;10.580;2023-07-08T00:35:56;7.95;;;4.53;;
35128;SDS011;21301;43.626;10.580;2023-07-08T00:38:26;9.65;;;4.53;;
35128;SDS011;21301;43.626;10.580;2023-07-08T00:41:04;9.40;;;4.50;;
35128;SDS011;21301;43.626;10.580;2023-07-08T00:43:39;6.75;;;4.05;;
35128;SDS011;21301;43.626;10.580;2023-07-08T00:46:13;7.50;;;4.05;;
35128;SDS011;21301;43.626;10.580;2023-07-08T00:48:46;8.35;;;4.40;;
35128;SDS011;21301;43.626;10.580;2023-07-08T00:51:13;7.47;;;4.03;;
35128;SDS011;21301;43.626;10.580;2023-07-08T00:53:47;6.28;;;3.72;;
35128;SDS011;21301;43.626;10.580;2023-07-08T00:56:15;8.63;;;5.40;;
35128;SDS011;21301;43.626;10.580;2023-07-08T00:58:45;8.43;;;4.43;;
35128;SDS011;21301;43.626;10.580;2023-07-08T01:01:30;10.80;;;5.00;;
35128;SDS011;21301;43.626;10.580;2023-07-08T01:04:11;8.18;;;4.55;;
35128;SDS011;21301;43.626;10.580;2023-07-08T01:06:49;7.82;;;4.57;;
35128;SDS011;21301;43.626;10.580;2023-07-08T01:09:24;6.85;;;4.25;;
35128;SDS011;21301;43.626;10.580;2023-07-08T01:11:58;8.40;;;4.82;;
35128;SDS011;21301;43.626;10.580;2023-07-08T01:14:34;9.77;;;5.00;;
35128;SDS011;21301;43.626;10.580;2023-07-08T01:17:02;10.18;;;5.93;;
35128;SDS011;21301;43.626;10.580;2023-07-08T01:19:34;7.70;;;4.95;;
35128;SDS011;21301;43.626;10.580;2023-07-08T01:22:00;10.75;;;5.32;;
35128;SDS011;21301;43.626;10.580;2023-07-08T01:24:27;8.15;;;5.43;;
35128;SDS011;21301;43.626;10.580;2023-07-08T01:26:58;9.70;;;5.05;;
35128;SDS011;21301;43.626;10.580;2023-07-08T01:29:27;8.25;;;5.00;;
35128;SDS011;21301;43.626;10.580;2023-07-08T01:31:57;8.57;;;5.18;;
35128;SDS011;21301;43.626;10.580;2023-07-08T01:34:31;7.70;;;4.78;;
35128;SDS011;21301;43.626;10.580;2023-07-08T01:36:58;8.65;;;5.53;;
35128;SDS011;21301;43.626;10.580;2023-07-08T01:39:26;9.68;;;4.57;;
35128;SDS011;21301;43.626;10.580;2023-07-08T01:41:56;7.60;;;4.65;;
35128;SDS011;21301;43.626;10.580;2023-07-08T01:44:33;9.07;;;4.95;;
35128;SDS011;21301;43.626;10.580;2023-07-08T01:49:53;9.82;;;5.80;;
35128;SDS011;21301;43.626;10.580;2023-07-08T01:52:20;11.40;;;5.05;;
35128;SDS011;21301;43.626;10.580;2023-07-08T01:54:54;6.43;;;3.92;;
35128;SDS011;21301;43.626;10.580;2023-07-08T01:57:21;8.60;;;5.20;;
35128;SDS011;21301;43.626;10.580;2023-07-08T01:59:46;7.32;;;4.43;;
35128;SDS011;21301;43.626;10.580;2023-07-08T02:02:13;9.80;;;4.80;;
35128;SDS011;21301;43.626;10.580;2023-07-08T02:04:39;10.10;;;4.47;;
35128;SDS011;21301;43.626;10.580;2023-07-08T02:07:05;7.20;;;4.28;;
35128;SDS011;21301;43.626;10.580;2023-07-08T02:09:33;9.10;;;4.90;;
35128;SDS011;21301;43.626;10.580;2023-07-08T02:12:08;6.35;;;3.78;;
35128;SDS011;21301;43.626;10.580;2023-07-08T02:14:33;8.10;;;3.67;;
35128;SDS011;21301;43.626;10.580;2023-07-08T02:17:00;9.23;;;4.72;;
35128;SDS011;21301;43.626;10.580;2023-07-08T02:19:31;7.18;;;3.25;;
35128;SDS011;21301;43.626;10.580;2023-07-08T02:21:58;9.32;;;4.82;;
35128;SDS011;21301;43.626;10.580;2023-07-08T02:24:25;7.97;;;4.20;;
35128;SDS011;21301;43.626;10.580;2023-07-08T02:26:52;6.07;;;3.55;;
35128;SDS011;21301;43.626;10.580;2023-07-08T02:29:18;10.13;;;4.38;;
35128;SDS011;21301;43.626;10.580;2023-07-08T02:31:44;7.93;;;3.92;;
35128;SDS011;21301;43.626;10.580;2023-07-08T02:34:12;7.10;;;4.82;;
35128;SDS011;21301;43.626;10.580;2023-07-08T02:36:40;9.35;;;4.38;;
35128;SDS011;21301;43.626;10.580;2023-07-08T02:39:07;6.43;;;3.78;;
35128;SDS011;21301;43.626;10.580;2023-07-08T02:41:35;14.98;;;4.47;;
35128;SDS011;21301;43.626;10.580;2023-07-08T02:44:01;7.05;;;4.47;;
35128;SDS011;21301;43.626;10.580;2023-07-08T02:46:33;7.70;;;4.80;;
35128;SDS011;21301;43.626;10.580;2023-07-08T02:48:59;6.88;;;4.15;;
35128;SDS011;21301;43.626;10.580;2023-07-08T02:51:27;7.22;;;4.93;;
35128;SDS011;21301;43.626;10.580;2023-07-08T02:53:53;11.75;;;3.65;;
35128;SDS011;21301;43.626;10.580;2023-07-08T02:56:20;6.32;;;3.95;;
35128;SDS011;21301;43.626;10.580;2023-07-08T02:58:48;6.68;;;3.85;;
35128;SDS011;21301;43.626;10.580;2023-07-08T03:01:14;7.85;;;3.97;;
35128;SDS011;21301;43.626;10.580;2023-07-08T03:03:44;6.68;;;3.83;;
35128;SDS011;21301;43.626;10.580;2023-07-08T03:06:11;8.05;;;3.70;;
35128;SDS011;21301;43.626;10.580;2023-07-08T03:08:38;7.10;;;3.72;;
35128;SDS011;21301;43.626;10.580;2023-07-08T03:11:06;10.63;;;4.43;;
35128;SDS011;21301;43.626;10.580;2023-07-08T03:13:34;7.85;;;3.80;;
35128;SDS011;21301;43.626;10.580;2023-07-08T03:16:01;8.07;;;4.75;;
35128;SDS011;21301;43.626;10.580;2023-07-08T03:18:37;7.05;;;4.07;;
35128;SDS011;21301;43.626;10.580;2023-07-08T03:21:13;8.45;;;3.53;;
35128;SDS011;21301;43.626;10.580;2023-07-08T03:23:40;6.00;;;3.42;;
35128;SDS011;21301;43.626;10.580;2023-07-08T03:26:06;6.13;;;3.42;;
35128;SDS011;21301;43.626;10.580;2023-07-08T03:28:46;8.02;;;3.80;;
35128;SDS011;21301;43.626;10.580;2023-07-08T03:31:15;6.72;;;4.22;;
35128;SDS011;21301;43.626;10.580;2023-07-08T03:33:42;9.23;;;3.75;;
35128;SDS011;21301;43.626;10.580;2023-07-08T03:36:13;8.82;;;4.40;;
35128;SDS011;21301;43.626;10.580;2023-07-08T03:38:55;8.35;;;4.32;;
35128;SDS011;21301;43.626;10.580;2023-07-08T03:41:22;7.72;;;4.65;;
35128;SDS011;21301;43.626;10.580;2023-07-08T03:43:49;8.30;;;4.72;;
35128;SDS011;21301;43.626;10.580;2023-07-08T03:46:20;8.60;;;4.93;;
35128;SDS011;21301;43.626;10.580;2023-07-08T03:48:46;7.95;;;4.60;;
35128;SDS011;21301;43.626;10.580;2023-07-08T03:51:23;8.70;;;4.25;;
35128;SDS011;21301;43.626;10.580;2023-07-08T03:53:51;7.47;;;4.55;;
35128;SDS011;21301;43.626;10.580;2023-07-08T03:56:18;8.70;;;4.45;;
35128;SDS011;21301;43.626;10.580;2023-07-08T03:58:46;9.25;;;4.50;;
35128;SDS011;21301;43.626;10.580;2023-07-08T04:01:20;9.63;;;5.20;;
35128;SDS011;21301;43.626;10.580;2023-07-08T04:03:52;9.98;;;5.68;;
35128;SDS011;21301;43.626;10.580;2023-07-08T04:06:20;11.38;;;5.65;;
35128;SDS011;21301;43.626;10.580;2023-07-08T04:08:47;10.80;;;5.38;;
35128;SDS011;21301;43.626;10.580;2023-07-08T04:11:20;10.35;;;5.47;;
35128;SDS011;21301;43.626;10.580;2023-07-08T04:13:48;10.15;;;5.38;;
35128;SDS011;21301;43.626;10.580;2023-07-08T04:16:22;12.93;;;5.88;;
35128;SDS011;21301;43.626;10.580;2023-07-08T04:18:54;11.93;;;6.03;;
35128;SDS011;21301;43.626;10.580;2023-07-08T04:21:21;13.65;;;6.72;;
35128;SDS011;21301;43.626;10.580;2023-07-08T04:23:54;9.98;;;5.80;;
35128;SDS011;21301;43.626;10.580;2023-07-08T04:26:41;13.35;;;5.68;;
35128;SDS011;21301;43.626;10.580;2023-07-08T04:29:15;9.98;;;6.13;;
35128;SDS011;21301;43.626;10.580;2023-07-08T04:31:45;9.00;;;5.47;;
35128;SDS011;21301;43.626;10.580;2023-07-08T04:34:14;10.68;;;4.60;;
35128;SDS011;21301;43.626;10.580;2023-07-08T04:36:41;9.07;;;4.65;;
35128;SDS011;21301;43.626;10.580;2023-07-08T04:39:07;9.50;;;4.35;;
35128;SDS011;21301;43.626;10.580;2023-07-08T04:41:35;7.50;;;4.38;;
35128;SDS011;21301;43.626;10.580;2023-07-08T04:44:11;10.55;;;4.88;;
35128;SDS011;21301;43.626;10.580;2023-07-08T04:46:41;11.57;;;4.25;;
35128;SDS011;21301;43.626;10.580;2023-07-08T04:49:12;8.07;;;4.15;;
35128;SDS011;21301;43.626;10.580;2023-07-08T04:51:42;7.18;;;4.15;;
35128;SDS011;21301;43.626;10.580;2023-07-08T04:54:09;6.82;;;3.92;;
35128;SDS011;21301;43.626;10.580;2023-07-08T04:56:37;9.57;;;4.65;;
35128;SDS011;21301;43.626;10.580;2023-07-08T04:59:08;8.82;;;5.32;;
35128;SDS011;21301;43.626;10.580;2023-07-08T05:01:35;17.30;;;5.13;;
35128;SDS011;21301;43.626;10.580;2023-07-08T05:04:02;12.68;;;6.25;;
35128;SDS011;21301;43.626;10.580;2023-07-08T05:06:30;9.80;;;5.50;;
35128;SDS011;21301;43.626;10.580;2023-07-08T05:08:58;9.50;;;5.68;;
35128;SDS011;21301;43.626;10.580;2023-07-08T05:11:31;10.35;;;5.50;;
35128;SDS011;21301;43.626;10.580;2023-07-08T05:14:01;11.35;;;5.50;;
35128;SDS011;21301;43.626;10.580;2023-07-08T05:16:38;10.93;;;5.13;;
35128;SDS011;21301;43.626;10.580;2023-07-08T05:19:05;9.05;;;5.13;;
35128;SDS011;21301;43.626;10.580;2023-07-08T05:24:04;7.80;;;4.75;;
35128;SDS011;21301;43.626;10.580;2023-07-08T05:26:31;6.80;;;4.13;;
35128;SDS011;21301;43.626;10.580;2023-07-08T05:28:58;6.32;;;3.50;;
35128;SDS011;21301;43.626;10.580;2023-07-08T05:31:26;7.93;;;3.70;;
35128;SDS011;21301;43.626;10.580;2023-07-08T05:33:57;11.13;;;3.70;;
35128;SDS011;21301;43.626;10.580;2023-07-08T05:36:32;10.98;;;4.20;;
35128;SDS011;21301;43.626;10.580;2023-07-08T05:38:57;8.52;;;3.92;;
35128;SDS011;21301;43.626;10.580;2023-07-08T05:41:24;8.23;;;4.63;;
35128;SDS011;21301;43.626;10.580;2023-07-08T05:43:50;9.60;;;4.20;;
35128;SDS011;21301;43.626;10.580;2023-07-08T05:46:15;6.88;;;3.63;;
35128;SDS011;21301;43.626;10.580;2023-07-08T05:48:41;6.55;;;3.60;;
35128;SDS011;21301;43.626;10.580;2023-07-08T05:51:07;6.60;;;3.70;;
35128;SDS011;21301;43.626;10.580;2023-07-08T05:53:33;8.52;;;3.78;;
35128;SDS011;21301;43.626;10.580;2023-07-08T05:55:59;6.43;;;3.67;;
35128;SDS011;21301;43.626;10.580;2023-07-08T05:58:26;8.23;;;3.65;;
35128;SDS011;21301;43.626;10.580;2023-07-08T06:00:56;9.13;;;4.03;;
35128;SDS011;21301;43.626;10.580;2023-07-08T06:03:22;6.22;;;3.50;;
35128;SDS011;21301;43.626;10.580;2023-07-08T06:05:48;7.22;;;3.85;;
35128;SDS011;21301;43.626;10.580;2023-07-08T06:08:14;7.22;;;4.13;;
35128;SDS011;21301;43.626;10.580;2023-07-08T06:10:43;8.23;;;4.32;;
35128;SDS011;21301;43.626;10.580;2023-07-08T06:13:10;8.13;;;4.47;;
35128;SDS011;21301;43.626;10.580;2023-07-08T06:15:37;9.30;;;4.32;;
35128;SDS011;21301;43.626;10.580;2023-07-08T06:18:05;9.20;;;4.25;;
35128;SDS011;21301;43.626;10.580;2023-07-08T06:20:31;7.75;;;3.90;;
35128;SDS011;21301;43.626;10.580;2023-07-08T06:22:57;6.78;;;3.30;;
35128;SDS011;21301;43.626;10.580;2023-07-08T06:25:23;9.27;;;3.50;;
35128;SDS011;21301;43.626;10.580;2023-07-08T06:27:49;7.22;;;4.10;;
35128;SDS011;21301;43.626;10.580;2023-07-08T06:30:14;6.90;;;3.17;;
35128;SDS011;21301;43.626;10.580;2023-07-08T06:32:41;6.97;;;3.78;;
35128;SDS011;21301;43.626;10.580;2023-07-08T06:35:07;7.63;;;3.60;;
35128;SDS011;21301;43.626;10.580;2023-07-08T06:37:33;7.38;;;4.28;;
35128;SDS011;21301;43.626;10.580;2023-07-08T06:40:01;8.07;;;3.50;;
35128;SDS011;21301;43.626;10.580;2023-07-08T06:42:28;7.95;;;3.22;;
35128;SDS011;21301;43.626;10.580;2023-07-08T06:45:04;6.63;;;3.08;;
35128;SDS011;21301;43.626;10.580;2023-07-08T06:47:30;8.82;;;3.38;;
35128;SDS011;21301;43.626;10.580;2023-07-08T06:49:57;6.13;;;3.00;;
35128;SDS011;21301;43.626;10.580;2023-07-08T06:52:23;9.77;;;3.50;;
35128;SDS011;21301;43.626;10.580;2023-07-08T06:54:48;7.50;;;3.08;;
35128;SDS011;21301;43.626;10.580;2023-07-08T06:57:14;5.97;;;3.40;;
35128;SDS011;21301;43.626;10.580;2023-07-08T06:59:40;8.45;;;2.95;;
35128;SDS011;21301;43.626;10.580;2023-07-08T07:02:07;8.82;;;3.40;;
35128;SDS011;21301;43.626;10.580;2023-07-08T07:04:33;7.50;;;3.22;;
35128;SDS011;21301;43.626;10.580;2023-07-08T07:07:00;8.90;;;3.17;;
35128;SDS011;21301;43.626;10.580;2023-07-08T07:09:26;8.43;;;3.53;;
35128;SDS011;21301;43.626;10.580;2023-07-08T07:11:53;9.93;;;4.38;;
35128;SDS011;21301;43.626;10.580;2023-07-08T07:14:19;7.07;;;3.13;;
35128;SDS011;21301;43.626;10.580;2023-07-08T07:16:45;6.55;;;2.88;;
35128;SDS011;21301;43.626;10.580;2023-07-08T07:19:10;7.60;;;3.83;;
35128;SDS011;21301;43.626;10.580;2023-07-08T07:21:36;10.00;;;3.83;;
35128;SDS011;21301;43.626;10.580;2023-07-08T07:24:02;6.72;;;2.78;;
35128;SDS011;21301;43.626;10.580;2023-07-08T07:26:29;8.35;;;3.05;;
35128;SDS011;21301;43.626;10.580;2023-07-08T07:28:55;12.60;;;3.25;;
35128;SDS011;21301;43.626;10.580;2023-07-08T07:31:21;6.65;;;3.13;;
35128;SDS011;21301;43.626;10.580;2023-07-08T07:33:47;5.95;;;2.80;;
35128;SDS011;21301;43.626;10.580;2023-07-08T07:36:13;7.28;;;3.78;;
35128;SDS011;21301;43.626;10.580;2023-07-08T07:38:39;11.38;;;3.08;;
35128;SDS011;21301;43.626;10.580;2023-07-08T07:41:05;6.72;;;2.90;;
35128;SDS011;21301;43.626;10.580;2023-07-08T07:43:33;10.23;;;3.08;;
35128;SDS011;21301;43.626;10.580;2023-07-08T07:45:59;7.45;;;2.80;;
35128;SDS011;21301;43.626;10.580;2023-07-08T07:48:24;6.28;;;3.28;;
35128;SDS011;21301;43.626;10.580;2023-07-08T07:50:51;7.10;;;3.10;;
35128;SDS011;21301;43.626;10.580;2023-07-08T07:53:18;5.68;;;2.80;;
35128;SDS011;21301;43.626;10.580;2023-07-08T07:55:44;9.75;;;2.85;;
35128;SDS011;21301;43.626;10.580;2023-07-08T07:58:10;8.43;;;2.90;;
35128;SDS011;21301;43.626;10.580;2023-07-08T08:00:40;7.88;;;2.70;;
35128;SDS011;21301;43.626;10.580;2023-07-08T08:03:06;5.65;;;3.22;;
35128;SDS011;21301;43.626;10.580;2023-07-08T08:05:32;7.47;;;2.97;;
35128;SDS011;21301;43.626;10.580;2023-07-08T08:07:59;6.22;;;2.72;;
35128;SDS011;21301;43.626;10.580;2023-07-08T08:10:25;7.82;;;3.28;;
35128;SDS011;21301;43.626;10.580;2023-07-08T08:12:55;7.68;;;3.00;;
35128;SDS011;21301;43.626;10.580;2023-07-08T08:15:21;7.50;;;3.85;;
35128;SDS011;21301;43.626;10.580;2023-07-08T08:17:48;6.72;;;2.97;;
35128;SDS011;21301;43.626;10.580;2023-07-08T08:20:17;5.53;;;2.92;;
35128;SDS011;21301;43.626;10.580;2023-07-08T08:22:47;10.57;;;3.40;;
35128;SDS011;21301;43.626;10.580;2023-07-08T08:25:14;13.82;;;3.38;;
35128;SDS011;21301;43.626;10.580;2023-07-08T08:27:43;6.03;;;2.70;;
35128;SDS011;21301;43.626;10.580;2023-07-08T08:30:09;9.40;;;3.25;;
35128;SDS011;21301;43.626;10.580;2023-07-08T08:32:36;6.00;;;3.03;;
35128;SDS011;21301;43.626;10.580;2023-07-08T08:35:02;5.47;;;2.63;;
35128;SDS011;21301;43.626;10.580;2023-07-08T08:37:29;8.70;;;4.03;;
35128;SDS011;21301;43.626;10.580;2023-07-08T08:39:55;6.82;;;3.20;;
35128;SDS011;21301;43.626;10.580;2023-07-08T08:42:40;9.95;;;3.05;;
35128;SDS011;21301;43.626;10.580;2023-07-08T08:45:12;7.28;;;3.10;;
35128;SDS011;21301;43.626;10.580;2023-07-08T08:47:50;5.90;;;2.47;;
35128;SDS011;21301;43.626;10.580;2023-07-08T08:50:36;9.90;;;2.72;;
35128;SDS011;21301;43.626;10.580;2023-07-08T08:53:11;7.82;;;3.05;;
35128;SDS011;21301;43.626;10.580;2023-07-08T08:55:38;6.18;;;3.25;;
35128;SDS011;21301;43.626;10.580;2023-07-08T08:58:12;6.13;;;3.00;;
35128;SDS011;21301;43.626;10.580;2023-07-08T09:00:45;6.78;;;3.10;;
35128;SDS011;21301;43.626;10.580;2023-07-08T09:03:42;10.38;;;3.22;;
35128;SDS011;21301;43.626;10.580;2023-07-08T09:06:30;8.38;;;2.80;;
35128;SDS011;21301;43.626;10.580;2023-07-08T09:09:42;8.18;;;4.32;;
35128;SDS011;21301;43.626;10.580;2023-07-08T09:12:38;9.07;;;3.60;;
35128;SDS011;21301;43.626;10.580;2023-07-08T09:14:49;9.00;;;3.05;;
35128;SDS011;21301;43.626;10.580;2023-07-08T09:17:23;8.55;;;3.08;;
35128;SDS011;21301;43.626;10.580;2023-07-08T09:22:51;6.43;;;3.05;;
35128;SDS011;21301;43.626;10.580;2023-07-08T09:25:33;10.93;;;3.85;;
35128;SDS011;21301;43.626;10.580;2023-07-08T09:28:39;5.07;;;2.85;;
35128;SDS011;21301;43.626;10.580;2023-07-08T09:31:07;6.90;;;3.53;;
35128;SDS011;21301;43.626;10.580;2023-07-08T09:33:45;9.00;;;3.90;;
35128;SDS011;21301;43.626;10.580;2023-07-08T09:36:18;17.20;;;3.72;;
35128;SDS011;21301;43.626;10.580;2023-07-08T09:38:48;6.35;;;3.60;;
35128;SDS011;21301;43.626;10.580;2023-07-08T09:41:26;8.60;;;4.00;;
35128;SDS011;21301;43.626;10.580;2023-07-08T09:44:03;7.28;;;3.90;;
35128;SDS011;21301;43.626;10.580;2023-07-08T09:46:35;6.75;;;3.13;;
35128;SDS011;21301;43.626;10.580;2023-07-08T09:49:14;8.02;;;3.50;;
35128;SDS011;21301;43.626;10.580;2023-07-08T09:52:07;9.90;;;3.55;;
35128;SDS011;21301;43.626;10.580;2023-07-08T09:54:37;11.25;;;3.90;;
35128;SDS011;21301;43.626;10.580;2023-07-08T09:57:09;7.60;;;3.20;;
35128;SDS011;21301;43.626;10.580;2023-07-08T09:59:48;14.25;;;4.18;;
35128;SDS011;21301;43.626;10.580;2023-07-08T10:02:28;20.65;;;4.18;;
35128;SDS011;21301;43.626;10.580;2023-07-08T10:05:06;8.00;;;4.10;;
35128;SDS011;21301;43.626;10.580;2023-07-08T10:07:38;9.52;;;3.83;;
35128;SDS011;21301;43.626;10.580;2023-07-08T10:10:06;9.77;;;3.70;;
35128;SDS011;21301;43.626;10.580;2023-07-08T10:12:36;11.48;;;4.75;;
35128;SDS011;21301;43.626;10.580;2023-07-08T10:18:16;10.65;;;4.05;;
35128;SDS011;21301;43.626;10.580;2023-07-08T10:26:18;6.15;;;3.22;;
35128;SDS011;21301;43.626;10.580;2023-07-08T10:31:41;7.53;;;3.65;;
35128;SDS011;21301;43.626;10.580;2023-07-08T10:34:36;8.55;;;3.72;;
35128;SDS011;21301;43.626;10.580;2023-07-08T10:42:19;7.50;;;4.13;;
35128;SDS011;21301;43.626;10.580;2023-07-08T10:45:12;11.10;;;3.97;;
35128;SDS011;21301;43.626;10.580;2023-07-08T10:48:24;11.55;;;3.78;;
35128;SDS011;21301;43.626;10.580;2023-07-08T10:56:05;8.07;;;4.28;;
35128;SDS011;21301;43.626;10.580;2023-07-08T11:07:52;6.53;;;3.70;;
35128;SDS011;21301;43.626;10.580;2023-07-08T11:10:56;7.65;;;3.63;;
35128;SDS011;21301;43.626;10.580;2023-07-08T11:13:18;7.53;;;3.95;;
35128;SDS011;21301;43.626;10.580;2023-07-08T11:18:42;8.70;;;4.25;;
35128;SDS011;21301;43.626;10.580;2023-07-08T11:21:22;8.43;;;4.60;;
35128;SDS011;21301;43.626;10.580;2023-07-08T11:23:57;6.43;;;3.45;;
35128;SDS011;21301;43.626;10.580;2023-07-08T11:26:38;8.15;;;3.95;;
35128;SDS011;21301;43.626;10.580;2023-07-08T11:29:14;9.05;;;4.25;;
35128;SDS011;21301;43.626;10.580;2023-07-08T11:31:48;7.28;;;4.22;;
35128;SDS011;21301;43.626;10.580;2023-07-08T11:34:17;7.85;;;4.03;;
35128;SDS011;21301;43.626;10.580;2023-07-08T11:36:44;9.18;;;4.35;;
35128;SDS011;21301;43.626;10.580;2023-07-08T11:42:11;6.25;;;3.55;;
35128;SDS011;21301;43.626;10.580;2023-07-08T11:44:47;6.90;;;3.78;;
35128;SDS011;21301;43.626;10.580;2023-07-08T11:47:40;6.03;;;3.75;;
35128;SDS011;21301;43.626;10.580;2023-07-08T11:50:12;6.00;;;3.22;;
35128;SDS011;21301;43.626;10.580;2023-07-08T11:53:07;7.72;;;3.45;;
35128;SDS011;21301;43.626;10.580;2023-07-08T11:58:22;7.65;;;3.70;;
35128;SDS011;21301;43.626;10.580;2023-07-08T12:03:34;7.22;;;3.50;;
35128;SDS011;21301;43.626;10.580;2023-07-08T12:06:02;7.10;;;3.20;;
35128;SDS011;21301;43.626;10.580;2023-07-08T12:08:48;6.85;;;3.50;;
35128;SDS011;21301;43.626;10.580;2023-07-08T12:11:17;8.25;;;3.50;;
35128;SDS011;21301;43.626;10.580;2023-07-08T12:13:43;6.28;;;3.30;;
35128;SDS011;21301;43.626;10.580;2023-07-08T12:16:10;7.22;;;3.92;;
35128;SDS011;21301;43.626;10.580;2023-07-08T12:18:38;9.40;;;4.53;;
35128;SDS011;21301;43.626;10.580;2023-07-08T12:21:11;6.82;;;3.35;;
35128;SDS011;21301;43.626;10.580;2023-07-08T12:23:43;6.20;;;3.55;;
35128;SDS011;21301;43.626;10.580;2023-07-08T12:26:11;7.90;;;4.00;;
35128;SDS011;21301;43.626;10.580;2023-07-08T12:28:37;8.07;;;3.95;;
35128;SDS011;21301;43.626;10.580;2023-07-08T12:31:26;7.90;;;3.55;;
35128;SDS011;21301;43.626;10.580;2023-07-08T12:33:52;7.15;;;3.63;;
35128;SDS011;21301;43.626;10.580;2023-07-08T12:36:20;9.23;;;3.60;;
35128;SDS011;21301;43.626;10.580;2023-07-08T12:38:58;6.37;;;3.73;;
35128;SDS011;21301;43.626;10.580;2023-07-08T12:41:31;8.30;;;3.80;;
35128;SDS011;21301;43.626;10.580;2023-07-08T12:44:02;7.05;;;4.05;;
35128;SDS011;21301;43.626;10.580;2023-07-08T12:46:34;7.80;;;3.83;;
35128;SDS011;21301;43.626;10.580;2023-07-08T12:49:02;7.40;;;3.33;;
35128;SDS011;21301;43.626;10.580;2023-07-08T12:51:28;6.20;;;3.58;;
35128;SDS011;21301;43.626;10.580;2023-07-08T12:53:54;11.82;;;4.60;;
35128;SDS011;21301;43.626;10.580;2023-07-08T12:56:21;12.18;;;4.18;;
35128;SDS011;21301;43.626;10.580;2023-07-08T12:58:52;10.18;;;4.03;;
35128;SDS011;21301;43.626;10.580;2023-07-08T13:01:22;8.50;;;4.28;;
35128;SDS011;21301;43.626;10.580;2023-07-08T13:04:05;7.80;;;3.75;;
35128;SDS011;21301;43.626;10.580;2023-07-08T13:06:35;9.25;;;3.60;;
35128;SDS011;21301;43.626;10.580;2023-07-08T13:11:58;14.07;;;3.90;;
35128;SDS011;21301;43.626;10.580;2023-07-08T13:14:27;8.38;;;3.97;;
35128;SDS011;21301;43.626;10.580;2023-07-08T13:16:53;8.02;;;3.60;;
35128;SDS011;21301;43.626;10.580;2023-07-08T13:19:19;5.90;;;3.17;;
35128;SDS011;21301;43.626;10.580;2023-07-08T13:21:46;7.75;;;3.60;;
35128;SDS011;21301;43.626;10.580;2023-07-08T13:24:12;7.72;;;3.78;;
35128;SDS011;21301;43.626;10.580;2023-07-08T13:26:38;5.97;;;3.30;;
35128;SDS011;21301;43.626;10.580;2023-07-08T13:29:17;8.57;;;4.20;;
35128;SDS011;21301;43.626;10.580;2023-07-08T13:31:55;9.02;;;4.18;;
35128;SDS011;21301;43.626;10.580;2023-07-08T13:34:27;10.80;;;3.97;;
35128;SDS011;21301;43.626;10.580;2023-07-08T13:36:55;7.55;;;3.88;;
35128;SDS011;21301;43.626;10.580;2023-07-08T13:42:00;7.03;;;3.72;;
35128;SDS011;21301;43.626;10.580;2023-07-08T13:44:26;6.38;;;3.25;;
35128;SDS011;21301;43.626;10.580;2023-07-08T13:46:54;12.63;;;4.05;;
35128;SDS011;21301;43.626;10.580;2023-07-08T13:49:23;7.15;;;3.35;;
35128;SDS011;21301;43.626;10.580;2023-07-08T13:52:03;6.80;;;3.78;;
35128;SDS011;21301;43.626;10.580;2023-07-08T13:54:41;11.15;;;3.92;;
35128;SDS011;21301;43.626;10.580;2023-07-08T13:57:27;6.30;;;3.42;;
35128;SDS011;21301;43.626;10.580;2023-07-08T13:59:59;7.35;;;3.53;;
35128;SDS011;21301;43.626;10.580;2023-07-08T14:02:37;9.65;;;3.60;;
35128;SDS011;21301;43.626;10.580;2023-07-08T14:05:09;8.60;;;3.97;;
35128;SDS011;21301;43.626;10.580;2023-07-08T14:07:39;9.02;;;4.05;;
35128;SDS011;21301;43.626;10.580;2023-07-08T14:10:12;7.68;;;4.32;;
35128;SDS011;21301;43.626;10.580;2023-07-08T14:12:38;5.75;;;3.70;;
35128;SDS011;21301;43.626;10.580;2023-07-08T14:15:08;10.50;;;3.67;;
35128;SDS011;21301;43.626;10.580;2023-07-08T14:17:36;7.28;;;3.65;;
35128;SDS011;21301;43.626;10.580;2023-07-08T14:20:11;7.78;;;4.15;;
35128;SDS011;21301;43.626;10.580;2023-07-08T14:22:41;7.80;;;3.33;;
35128;SDS011;21301;43.626;10.580;2023-07-08T14:25:08;6.95;;;3.53;;
35128;SDS011;21301;43.626;10.580;2023-07-08T14:27:35;8.50;;;4.15;;
35128;SDS011;21301;43.626;10.580;2023-07-08T14:30:01;5.97;;;3.60;;
35128;SDS011;21301;43.626;10.580;2023-07-08T14:32:29;12.52;;;4.00;;
35128;SDS011;21301;43.626;10.580;2023-07-08T14:37:42;7.20;;;3.10;;
35128;SDS011;21301;43.626;10.580;2023-07-08T14:43:02;6.90;;;3.75;;
35128;SDS011;21301;43.626;10.580;2023-07-08T14:45:50;11.05;;;3.97;;
35128;SDS011;21301;43.626;10.580;2023-07-08T14:48:18;7.60;;;4.30;;
35128;SDS011;21301;43.626;10.580;2023-07-08T14:50:44;11.40;;;3.53;;
35128;SDS011;21301;43.626;10.580;2023-07-08T14:53:12;6.65;;;3.50;;
35128;SDS011;21301;43.626;10.580;2023-07-08T14:55:39;7.60;;;3.45;;
35128;SDS011;21301;43.626;10.580;2023-07-08T14:58:05;7.47;;;3.90;;
35128;SDS011;21301;43.626;10.580;2023-07-08T15:00:31;7.28;;;3.38;;
35128;SDS011;21301;43.626;10.580;2023-07-08T15:02:57;8.88;;;3.78;;
35128;SDS011;21301;43.626;10.580;2023-07-08T15:05:24;7.10;;;3.92;;
35128;SDS011;21301;43.626;10.580;2023-07-08T15:07:53;7.60;;;3.67;;
35128;SDS011;21301;43.626;10.580;2023-07-08T15:10:21;7.65;;;3.35;;
35128;SDS011;21301;43.626;10.580;2023-07-08T15:12:50;7.40;;;3.67;;
35128;SDS011;21301;43.626;10.580;2023-07-08T15:15:18;10.00;;;3.80;;
35128;SDS011;21301;43.626;10.580;2023-07-08T15:17:58;8.38;;;4.05;;
35128;SDS011;21301;43.626;10.580;2023-07-08T15:20:24;7.32;;;3.45;;
35128;SDS011;21301;43.626;10.580;2023-07-08T15:22:52;7.30;;;3.95;;
35128;SDS011;21301;43.626;10.580;2023-07-08T15:25:17;6.95;;;3.58;;
35128;SDS011;21301;43.626;10.580;2023-07-08T15:27:51;8.85;;;4.15;;
35128;SDS011;21301;43.626;10.580;2023-07-08T15:30:23;6.82;;;3.70;;
35128;SDS011;21301;43.626;10.580;2023-07-08T15:32:52;6.45;;;4.13;;
35128;SDS011;21301;43.626;10.580;2023-07-08T15:35:27;15.93;;;4.53;;
35128;SDS011;21301;43.626;10.580;2023-07-08T15:37:59;7.03;;;3.75;;
35128;SDS011;21301;43.626;10.580;2023-07-08T15:40:30;7.63;;;3.47;;
35128;SDS011;21301;43.626;10.580;2023-07-08T15:42:58;7.30;;;3.72;;
35128;SDS011;21301;43.626;10.580;2023-07-08T15:45:36;6.90;;;3.80;;
35128;SDS011;21301;43.626;10.580;2023-07-08T15:48:11;10.38;;;4.25;;
35128;SDS011;21301;43.626;10.580;2023-07-08T15:50:43;8.30;;;3.88;;
35128;SDS011;21301;43.626;10.580;2023-07-08T15:53:10;6.10;;;3.88;;
35128;SDS011;21301;43.626;10.580;2023-07-08T15:55:38;14.18;;;3.92;;
35128;SDS011;21301;43.626;10.580;2023-07-08T15:58:20;8.27;;;3.85;;